createdAt,value
2019-04-30T00:03:37.652Z,7.27
2019-04-30T00:08:39.220Z,7.38
2019-04-30T00:13:40.243Z,7.31
2019-04-30T00:18:55.428Z,7.35
2019-04-30T00:23:45.800Z,7.19
2019-04-30T00:28:47.836Z,7.17
2019-04-30T00:33:52.738Z,7.32
2019-04-30T00:38:51.752Z,7.28
2019-04-30T00:43:52.607Z,7.41
2019-04-30T00:48:55.544Z,7.38
2019-04-30T00:53:56.477Z,7.37
2019-04-30T00:58:57.972Z,7.22
2019-04-30T01:04:05.033Z,7.30
2019-04-30T01:09:08.707Z,7.24
2019-04-30T01:14:09.880Z,7.10
2019-04-30T01:19:26.597Z,7.45
2019-04-30T01:24:13.886Z,7.31
2019-04-30T01:29:15.265Z,7.31
2019-04-30T01:34:16.436Z,7.24
2019-04-30T01:39:19.401Z,7.31
2019-04-30T01:44:20.077Z,7.31
2019-04-30T01:49:25.706Z,7.30
2019-04-30T01:54:24.411Z,7.27
2019-04-30T01:59:29.099Z,7.31
2019-04-30T02:04:31.466Z,7.31
2019-04-30T02:09:32.574Z,7.24
2019-04-30T02:14:33.563Z,7.27
2019-04-30T02:19:34.459Z,7.17
2019-04-30T02:24:35.333Z,7.15
2019-04-30T02:29:36.219Z,7.19
2019-04-30T02:34:44.827Z,7.25
2019-04-30T02:39:46.184Z,7.19
2019-04-30T02:44:50.196Z,7.29
2019-04-30T02:49:53.355Z,7.33
2019-04-30T02:54:55.227Z,7.19
2019-04-30T03:00:16.104Z,7.05
2019-04-30T03:05:19.551Z,7.07
2019-04-30T03:10:20.113Z,7.17
2019-04-30T03:15:22.885Z,7.16
2019-04-30T03:20:36.414Z,7.06
2019-04-30T03:25:40.349Z,7.14
2019-04-30T03:30:42.058Z,7.23
2019-04-30T03:35:47.865Z,7.09
2019-04-30T03:40:46.097Z,7.13
2019-04-30T03:45:49.733Z,7.15
2019-04-30T03:50:56.288Z,7.29
2019-04-30T03:55:52.616Z,7.23
2019-04-30T04:01:00.346Z,7.41
2019-04-30T04:06:21.428Z,7.28
2019-04-30T04:11:24.111Z,7.22
2019-04-30T04:16:24.994Z,7.33
2019-04-30T04:21:25.954Z,7.34
2019-04-30T04:26:26.835Z,7.27
2019-04-30T04:31:29.825Z,7.23
2019-04-30T04:36:30.573Z,7.35
2019-04-30T04:41:31.593Z,7.16
2019-04-30T04:46:32.489Z,7.45
2019-04-30T04:51:38.501Z,7.25
2019-04-30T04:56:36.138Z,7.37
2019-04-30T05:01:38.790Z,7.25
2019-04-30T05:06:39.885Z,7.19
2019-04-30T05:11:40.761Z,7.12
2019-04-30T05:16:41.645Z,7.24
2019-04-30T05:21:44.745Z,7.21
2019-04-30T05:26:45.304Z,7.23
2019-04-30T05:31:46.181Z,7.28
2019-04-30T05:36:48.847Z,7.24
2019-04-30T05:41:49.847Z,7.29
2019-04-30T05:46:50.725Z,7.43
2019-04-30T05:51:55.540Z,7.39
2019-04-30T05:56:54.616Z,7.33
2019-04-30T06:01:55.496Z,7.43
2019-04-30T06:06:56.396Z,7.21
2019-04-30T06:11:59.303Z,7.36
2019-04-30T06:17:09.744Z,7.37
2019-04-30T06:22:11.204Z,7.34
2019-04-30T06:27:12.372Z,7.25
2019-04-30T06:32:13.415Z,7.30
2019-04-30T06:37:14.373Z,7.35
2019-04-30T06:42:15.283Z,7.45
2019-04-30T06:47:16.548Z,7.40
2019-04-30T06:52:21.358Z,7.51
2019-04-30T06:57:20.195Z,7.50
2019-04-30T07:02:21.184Z,7.64
2019-04-30T07:07:30.767Z,7.59
2019-04-30T07:12:30.544Z,7.51
2019-04-30T07:17:31.537Z,7.56
2019-04-30T07:22:40.178Z,7.61
2019-04-30T07:27:35.294Z,7.60
2019-04-30T07:32:36.160Z,7.69
2019-04-30T07:37:38.966Z,7.67
2019-04-30T07:42:44.602Z,7.82
2019-04-30T07:47:42.613Z,7.80
2019-04-30T07:52:58.895Z,7.75
2019-04-30T07:57:46.248Z,7.77
2019-04-30T08:02:51.815Z,7.80
2019-04-30T08:07:52.697Z,7.88
2019-04-30T08:12:54.093Z,7.93
2019-04-30T08:18:03.565Z,7.93
2019-04-30T08:23:03.094Z,8.01
2019-04-30T08:28:00.933Z,8.00
2019-04-30T08:33:01.996Z,8.12
2019-04-30T08:38:03.073Z,8.28
2019-04-30T08:43:04.059Z,8.15
2019-04-30T08:48:05.215Z,8.24
2019-04-30T08:53:06.163Z,8.18
2019-04-30T08:58:11.973Z,8.33
2019-04-30T09:03:09.925Z,8.34
2019-04-30T09:08:12.613Z,8.47
2019-04-30T09:13:13.480Z,8.51
2019-04-30T09:18:14.353Z,8.40
2019-04-30T09:23:15.235Z,8.46
2019-04-30T09:28:16.221Z,8.42
2019-04-30T09:33:17.072Z,8.34
2019-04-30T09:38:19.544Z,8.58
2019-04-30T09:43:20.922Z,8.37
2019-04-30T09:48:22.838Z,8.28
2019-04-30T09:53:24.729Z,8.35
2019-04-30T09:58:25.804Z,8.32
2019-04-30T10:03:27.269Z,8.45
2019-04-30T10:08:30.656Z,8.56
2019-04-30T10:13:32.388Z,8.71
2019-04-30T10:18:33.745Z,8.80
2019-04-30T10:23:34.623Z,8.91
2019-04-30T10:28:37.808Z,9.02
2019-04-30T10:33:38.720Z,9.04
2019-04-30T10:38:39.552Z,9.12
2019-04-30T10:43:40.650Z,9.14
2019-04-30T10:48:43.489Z,9.16
2019-04-30T10:53:44.375Z,9.27
2019-04-30T10:58:45.444Z,9.35
2019-04-30T11:03:46.423Z,9.29
2019-04-30T11:08:47.299Z,9.31
2019-04-30T11:13:48.183Z,9.26
2019-04-30T11:18:49.235Z,9.15
2019-04-30T11:23:50.883Z,9.25
2019-04-30T11:28:52.515Z,9.17
2019-04-30T11:33:55.623Z,9.23
2019-04-30T11:38:58.255Z,9.26
2019-04-30T11:43:59.572Z,9.19
2019-04-30T11:49:00.671Z,9.14
2019-04-30T11:54:01.547Z,9.17
2019-04-30T11:59:02.715Z,9.17
2019-04-30T12:04:03.888Z,9.13
2019-04-30T12:09:15.334Z,9.29
2019-04-30T12:14:16.316Z,9.38
2019-04-30T12:19:18.916Z,9.29
2019-04-30T12:24:20.112Z,9.28
2019-04-30T12:29:21.073Z,9.26
2019-04-30T12:34:24.707Z,9.37
2019-04-30T12:39:25.658Z,9.46
2019-04-30T12:44:26.631Z,9.54
2019-04-30T12:49:29.639Z,9.55
2019-04-30T12:54:41.760Z,9.56
2019-04-30T12:59:42.643Z,9.55
2019-04-30T13:04:43.503Z,9.56
2019-04-30T13:09:44.974Z,9.71
2019-04-30T13:14:52.497Z,9.68
2019-04-30T13:19:48.981Z,9.70
2019-04-30T13:24:49.990Z,9.77
2019-04-30T13:29:52.751Z,9.84
2019-04-30T13:35:00.680Z,9.83
2019-04-30T13:40:09.215Z,10.00
2019-04-30T13:45:10.540Z,10.02
2019-04-30T13:50:12.463Z,10.13
2019-04-30T13:55:13.423Z,10.19
2019-04-30T14:00:18.590Z,10.33
2019-04-30T14:05:19.976Z,10.62
2019-04-30T14:10:21.317Z,10.83
2019-04-30T14:15:22.309Z,11.17
2019-04-30T14:20:23.830Z,11.17
2019-04-30T14:25:24.701Z,11.44
2019-04-30T14:30:25.676Z,11.17
2019-04-30T14:35:28.681Z,11.23
2019-04-30T14:40:33.156Z,11.45
2019-04-30T14:45:40.698Z,11.50
2019-04-30T14:50:42.479Z,12.48
2019-04-30T14:55:54.270Z,12.07
2019-04-30T15:01:09.395Z,12.07
2019-04-30T15:06:10.681Z,12.46
2019-04-30T15:11:12.048Z,12.46
2019-04-30T15:16:13.077Z,12.62
2019-04-30T15:21:14.097Z,12.56
2019-04-30T15:26:22.083Z,12.56
2019-04-30T15:31:18.543Z,13.16
2019-04-30T15:36:19.755Z,13.76
2019-04-30T15:41:21.039Z,13.61
2019-04-30T15:46:22.720Z,13.40
2019-04-30T15:51:23.791Z,13.04
2019-04-30T15:56:34.405Z,12.69
2019-04-30T16:01:29.085Z,12.65
2019-04-30T16:06:30.292Z,12.33
2019-04-30T16:11:33.114Z,12.15
2019-04-30T16:16:36.494Z,11.37
2019-04-30T16:21:37.363Z,11.31
2019-04-30T16:26:49.038Z,11.21
2019-04-30T16:31:41.191Z,10.89
2019-04-30T16:36:42.081Z,10.89
2019-04-30T16:41:43.044Z,10.54
2019-04-30T16:46:43.928Z,10.30
2019-04-30T16:51:44.973Z,10.39
2019-04-30T16:56:46.138Z,10.54
2019-04-30T17:01:57.455Z,10.59
2019-04-30T17:07:12.109Z,10.47
2019-04-30T17:12:23.870Z,10.47
2019-04-30T17:17:24.875Z,10.41
2019-04-30T17:22:25.754Z,10.61
2019-04-30T17:27:26.629Z,10.55
2019-04-30T17:32:28.598Z,10.27
2019-04-30T17:37:31.484Z,10.30
2019-04-30T17:42:32.375Z,10.20
2019-04-30T17:47:33.256Z,10.13
2019-04-30T17:52:34.212Z,10.04
2019-04-30T17:57:35.191Z,10.09
2019-04-30T18:02:36.172Z,10.06
2019-04-30T18:07:37.150Z,9.99
2019-04-30T18:12:39.133Z,10.04
2019-04-30T18:17:41.415Z,10.04
2019-04-30T18:23:01.142Z,10.05
2019-04-30T18:28:04.372Z,10.03
2019-04-30T18:33:06.172Z,10.02
2019-04-30T18:38:07.152Z,9.87
2019-04-30T18:43:08.228Z,9.83
2019-04-30T18:48:09.698Z,9.66
2019-04-30T18:53:13.239Z,9.60
2019-04-30T18:58:14.106Z,9.66
2019-04-30T19:03:15.182Z,9.67
2019-04-30T19:08:19.486Z,9.48
2019-04-30T19:13:22.406Z,9.48
2019-04-30T19:18:25.193Z,9.35
2019-04-30T19:23:26.159Z,9.39
2019-04-30T19:28:28.692Z,9.47
2019-04-30T19:33:31.218Z,9.18
2019-04-30T19:38:32.390Z,9.04
2019-04-30T19:43:33.254Z,9.08
2019-04-30T19:48:35.814Z,9.03
2019-04-30T19:53:36.687Z,9.02
2019-04-30T19:58:52.340Z,8.90
2019-04-30T20:03:40.845Z,8.80
2019-04-30T20:08:42.428Z,8.91
2019-04-30T20:13:43.410Z,8.84
2019-04-30T20:18:44.283Z,8.81
2019-04-30T20:23:45.150Z,8.91
2019-04-30T20:28:46.134Z,8.88
2019-04-30T20:33:48.950Z,8.88
2019-04-30T20:39:01.279Z,8.74
2019-04-30T20:44:02.477Z,8.73
2019-04-30T20:49:05.345Z,8.71
2019-04-30T20:54:06.436Z,8.57
2019-04-30T20:59:10.459Z,8.58
2019-04-30T21:04:10.467Z,8.53
2019-04-30T21:09:11.373Z,8.35
2019-04-30T21:14:18.702Z,8.27
2019-04-30T21:19:19.980Z,8.36
2019-04-30T21:24:20.844Z,8.21
2019-04-30T21:29:21.715Z,8.13
2019-04-30T21:34:30.112Z,8.09
2019-04-30T21:39:30.968Z,8.17
2019-04-30T21:44:31.822Z,8.12
2019-04-30T21:49:32.884Z,8.24
2019-04-30T21:54:33.746Z,7.91
2019-04-30T21:59:34.602Z,7.91
2019-04-30T22:04:35.773Z,7.85
2019-04-30T22:09:37.491Z,7.97
2019-04-30T22:14:38.592Z,7.95
2019-04-30T22:19:39.579Z,7.84
2019-04-30T22:24:40.469Z,7.78
2019-04-30T22:29:42.271Z,7.75
2019-04-30T22:34:43.419Z,7.68
2019-04-30T22:39:46.198Z,7.98
